createdAt,value
2023-02-08T00:00:09.955Z,89.88
2023-02-08T00:01:14.966Z,89.38
2023-02-08T00:02:18.371Z,88.21
2023-02-08T00:03:22.156Z,88.28
2023-02-08T00:04:26.274Z,87.92
2023-02-08T00:05:28.940Z,86.76
2023-02-08T00:06:31.004Z,87.46
2023-02-08T00:07:33.758Z,88.00
2023-02-08T00:08:36.222Z,89.47
2023-02-08T00:09:38.922Z,91.08
2023-02-08T00:10:40.927Z,92.33
2023-02-08T00:11:43.736Z,93.66
2023-02-08T00:12:45.439Z,95.76
2023-02-08T00:13:48.073Z,96.75
2023-02-08T00:14:49.828Z,98.15
2023-02-08T00:15:54.614Z,98.87
2023-02-08T00:16:56.330Z,99.40
2023-02-08T00:18:00.497Z,99.55
2023-02-08T00:19:02.137Z,98.33
2023-02-08T00:20:05.346Z,97.62
2023-02-08T00:21:09.075Z,96.68
2023-02-08T00:22:11.877Z,95.15
2023-02-08T00:23:14.595Z,93.24
2023-02-08T00:24:17.566Z,91.77
2023-02-08T00:25:19.299Z,90.01
2023-02-08T00:26:21.967Z,89.59
2023-02-08T00:27:23.736Z,88.28
2023-02-08T00:28:26.575Z,87.59
2023-02-08T00:29:28.287Z,87.09
2023-02-08T00:30:30.967Z,86.65
2023-02-08T00:31:32.755Z,85.71
2023-02-08T00:32:35.878Z,85.09
2023-02-08T00:33:39.873Z,85.55
2023-02-08T00:34:41.695Z,85.23
2023-02-08T00:35:44.397Z,85.14
2023-02-08T00:36:46.094Z,84.43
2023-02-08T00:37:48.711Z,84.21
2023-02-08T00:38:50.505Z,84.38
2023-02-08T00:39:53.432Z,84.28
2023-02-08T00:40:55.306Z,84.56
2023-02-08T00:41:57.966Z,84.75
2023-02-08T00:42:59.562Z,84.70
2023-02-08T00:44:02.604Z,84.86
2023-02-08T00:45:05.070Z,84.49
2023-02-08T00:46:08.180Z,84.07
2023-02-08T00:47:09.866Z,84.51
2023-02-08T00:48:12.542Z,83.58
2023-02-08T00:49:16.330Z,83.76
2023-02-08T00:50:18.973Z,83.29
2023-02-08T00:51:20.736Z,83.62
2023-02-08T00:52:23.477Z,84.70
2023-02-08T00:53:25.346Z,84.64
2023-02-08T00:54:28.060Z,84.89
2023-02-08T00:55:29.870Z,84.58
2023-02-08T00:56:32.785Z,85.24
2023-02-08T00:57:35.753Z,86.35
2023-02-08T00:58:39.171Z,86.23
2023-02-08T00:59:40.819Z,86.54
2023-02-08T01:00:43.482Z,86.90
2023-02-08T01:01:45.695Z,87.22
2023-02-08T01:02:48.305Z,87.95
2023-02-08T01:03:49.958Z,88.47
2023-02-08T01:04:53.896Z,89.04
2023-02-08T01:06:00.799Z,88.93
2023-02-08T01:07:03.495Z,89.18
2023-02-08T01:08:07.992Z,88.87
2023-02-08T01:09:10.615Z,89.29
2023-02-08T01:10:12.903Z,89.73
2023-02-08T01:11:18.737Z,89.80
2023-02-08T01:12:20.380Z,91.74
2023-02-08T01:13:23.139Z,91.33
2023-02-08T01:14:25.529Z,90.03
2023-02-08T01:15:28.545Z,89.16
2023-02-08T01:16:32.326Z,87.72
2023-02-08T01:17:35.152Z,86.38
2023-02-08T01:18:37.638Z,86.32
2023-02-08T01:19:42.600Z,86.69
2023-02-08T01:20:45.806Z,86.69
2023-02-08T01:21:49.211Z,86.32
2023-02-08T01:22:50.987Z,85.96
2023-02-08T01:23:53.862Z,86.02
2023-02-08T01:24:55.529Z,85.53
2023-02-08T01:25:58.176Z,86.90
2023-02-08T01:27:01.225Z,87.68
2023-02-08T01:28:02.907Z,87.72
2023-02-08T01:29:05.814Z,87.56
2023-02-08T01:30:09.444Z,87.59
2023-02-08T01:31:14.485Z,87.87
2023-02-08T01:32:17.233Z,88.95
2023-02-08T01:33:18.965Z,88.35
2023-02-08T01:34:21.841Z,88.67
2023-02-08T01:35:26.629Z,89.18
2023-02-08T01:36:32.356Z,89.98
2023-02-08T01:37:36.911Z,90.82
2023-02-08T01:38:40.277Z,92.27
2023-02-08T01:39:41.818Z,93.22
2023-02-08T01:40:44.445Z,93.38
2023-02-08T01:41:47.134Z,93.40
2023-02-08T01:42:49.768Z,94.40
2023-02-08T01:44:43.246Z,94.14
2023-02-08T01:45:44.928Z,93.67
2023-02-08T01:46:51.208Z,93.42
2023-02-08T01:47:56.709Z,93.83
2023-02-08T01:49:03.430Z,93.43
2023-02-08T01:50:05.545Z,93.77
2023-02-08T01:51:13.565Z,94.29
2023-02-08T01:52:20.550Z,94.07
2023-02-08T01:53:26.791Z,94.51
2023-02-08T01:54:32.716Z,96.03
2023-02-08T01:55:39.822Z,95.92
2023-02-08T01:56:46.002Z,97.00
2023-02-08T01:57:52.725Z,97.35
2023-02-08T01:59:00.992Z,97.43
2023-02-08T02:00:08.595Z,97.82
2023-02-08T02:01:14.572Z,97.50
2023-02-08T02:02:20.905Z,97.77
2023-02-08T02:03:23.886Z,97.71
2023-02-08T02:04:27.316Z,96.41
2023-02-08T02:05:34.410Z,94.58
2023-02-08T02:06:40.282Z,93.88
2023-02-08T02:07:43.943Z,92.47
2023-02-08T02:08:52.854Z,93.42
2023-02-08T02:10:03.143Z,92.77
2023-02-08T02:11:06.042Z,91.76
2023-02-08T02:12:09.108Z,91.38
2023-02-08T02:13:14.820Z,91.17
2023-02-08T02:14:17.135Z,90.46
2023-02-08T02:15:19.901Z,89.61
2023-02-08T02:16:21.862Z,87.86
2023-02-08T02:17:24.729Z,87.52
2023-02-08T02:18:29.178Z,87.14
2023-02-08T02:19:41.232Z,87.67
2023-02-08T02:21:02.651Z,89.75
2023-02-08T02:22:20.860Z,90.74
2023-02-08T02:24:08.501Z,90.41
2023-02-08T02:25:43.904Z,90.41
2023-02-08T02:27:15.044Z,89.22
2023-02-08T02:28:44.424Z,87.55
2023-02-08T02:30:10.236Z,87.77
2023-02-08T02:31:31.221Z,90.00
2023-02-08T02:32:46.148Z,91.04
2023-02-08T02:33:59.356Z,91.42
2023-02-08T02:35:08.161Z,91.59
2023-02-08T02:36:20.063Z,91.39
2023-02-08T02:37:32.124Z,91.14
2023-02-08T02:38:46.435Z,91.24
2023-02-08T02:39:59.011Z,90.23
2023-02-08T02:41:14.383Z,88.79
2023-02-08T02:42:46.210Z,87.69
2023-02-08T02:43:54.238Z,86.21
2023-02-08T02:45:11.512Z,85.06
2023-02-08T02:46:22.706Z,84.76
2023-02-08T02:47:42.598Z,84.84
2023-02-08T02:48:50.506Z,84.21
2023-02-08T02:49:58.589Z,83.63
2023-02-08T02:51:07.208Z,82.98
2023-02-08T02:52:16.080Z,83.40
2023-02-08T02:53:23.697Z,83.50
2023-02-08T02:54:33.251Z,83.23
2023-02-08T02:55:44.220Z,83.39
2023-02-08T02:56:50.004Z,83.24
2023-02-08T02:57:55.164Z,82.85
2023-02-08T02:59:03.024Z,82.87
2023-02-08T03:00:08.606Z,83.49
2023-02-08T03:01:11.344Z,83.53
2023-02-08T03:02:14.145Z,84.74
2023-02-08T03:03:22.365Z,84.99
2023-02-08T03:04:50.161Z,84.59
2023-02-08T03:05:55.447Z,84.21
2023-02-08T03:07:06.469Z,85.25
2023-02-08T03:08:27.907Z,85.96
2023-02-08T03:09:47.786Z,86.88
2023-02-08T03:11:02.006Z,85.95
2023-02-08T03:12:16.858Z,88.19
2023-02-08T03:13:28.439Z,89.29
2023-02-08T03:14:39.353Z,89.04
2023-02-08T03:15:52.880Z,89.61
2023-02-08T03:17:35.237Z,90.82
2023-02-08T03:18:51.750Z,90.99
2023-02-08T03:20:05.296Z,90.68
2023-02-08T03:21:11.601Z,90.54
2023-02-08T03:22:17.630Z,91.78
2023-02-08T03:23:24.453Z,92.75
2023-02-08T03:24:33.967Z,91.98
2023-02-08T03:25:45.636Z,92.17
2023-02-08T03:26:54.253Z,91.88
2023-02-08T03:28:06.440Z,90.59
2023-02-08T03:29:17.994Z,90.23
2023-02-08T03:30:29.298Z,90.00
2023-02-08T03:31:38.400Z,92.16
2023-02-08T03:32:44.751Z,92.20
2023-02-08T03:33:53.299Z,93.34
2023-02-08T03:35:01.944Z,92.74
2023-02-08T03:36:07.933Z,92.77
2023-02-08T03:37:15.913Z,93.54
2023-02-08T03:38:22.812Z,93.87
2023-02-08T03:39:28.814Z,95.49
2023-02-08T03:40:36.237Z,95.18
2023-02-08T03:41:43.064Z,93.87
2023-02-08T03:42:48.879Z,92.95
2023-02-08T03:43:54.810Z,92.26
2023-02-08T03:45:02.673Z,91.97
2023-02-08T03:46:11.014Z,91.38
2023-02-08T03:47:18.590Z,91.22
2023-02-08T03:48:25.428Z,91.20
2023-02-08T03:49:38.410Z,90.42
2023-02-08T03:50:42.898Z,90.17
2023-02-08T03:51:47.493Z,90.00
2023-02-08T03:52:52.813Z,90.31
2023-02-08T03:53:57.615Z,89.56
2023-02-08T03:55:05.144Z,90.50
2023-02-08T03:56:11.044Z,93.48
2023-02-08T03:57:18.918Z,95.49
2023-02-08T03:58:26.595Z,95.91
2023-02-08T03:59:33.577Z,95.75
2023-02-08T04:00:39.990Z,97.06
2023-02-08T04:01:44.854Z,98.49
2023-02-08T04:02:57.470Z,99.15
2023-02-08T04:04:00.913Z,100.00
2023-02-08T04:05:06.391Z,99.86
2023-02-08T04:06:07.998Z,100.00
2023-02-08T04:07:11.143Z,100.00
2023-02-08T04:08:12.820Z,100.00
2023-02-08T04:09:15.875Z,100.00
2023-02-08T04:10:17.916Z,100.00
2023-02-08T04:11:20.811Z,99.83
2023-02-08T04:12:22.492Z,99.78
2023-02-08T04:13:24.991Z,97.99
2023-02-08T04:14:26.615Z,96.57
2023-02-08T04:15:29.312Z,95.11
2023-02-08T04:16:31.082Z,94.13
2023-02-08T04:17:33.895Z,93.03
2023-02-08T04:18:35.432Z,93.01
2023-02-08T04:19:39.718Z,92.14
2023-02-08T04:20:42.766Z,91.92
2023-02-08T04:21:45.416Z,91.87
2023-02-08T04:22:46.988Z,92.38
2023-02-08T04:23:49.496Z,92.79
2023-02-08T04:24:51.019Z,93.44
2023-02-08T04:25:56.884Z,94.31
2023-02-08T04:26:58.539Z,94.32
2023-02-08T04:28:01.380Z,94.02
2023-02-08T04:29:03.238Z,94.63
2023-02-08T04:30:06.787Z,97.30
2023-02-08T04:31:08.498Z,97.88
2023-02-08T04:32:11.916Z,98.02
2023-02-08T04:33:14.980Z,97.61
2023-02-08T04:34:17.522Z,97.22
2023-02-08T04:35:19.194Z,95.80
2023-02-08T04:36:23.281Z,95.19
2023-02-08T04:37:24.928Z,95.54
2023-02-08T04:38:27.681Z,95.68
2023-02-08T04:39:29.573Z,94.82
2023-02-08T04:40:32.675Z,95.28
2023-02-08T04:41:34.235Z,98.14
2023-02-08T04:42:36.819Z,100.00
2023-02-08T04:43:38.413Z,100.00
2023-02-08T04:44:41.028Z,100.00
2023-02-08T04:45:42.708Z,100.00
2023-02-08T04:46:45.540Z,100.00
2023-02-08T04:47:47.267Z,100.00
2023-02-08T04:48:49.865Z,100.00
2023-02-08T04:49:51.551Z,99.63
2023-02-08T04:50:56.393Z,98.10
2023-02-08T04:51:59.398Z,98.55
2023-02-08T04:53:02.000Z,97.96
2023-02-08T04:54:03.560Z,96.79
2023-02-08T04:55:06.910Z,96.47
2023-02-08T04:56:08.614Z,96.28
2023-02-08T04:57:13.574Z,96.83
2023-02-08T04:58:15.230Z,95.36
2023-02-08T04:59:18.410Z,94.91
2023-02-08T05:00:20.105Z,94.22
2023-02-08T05:01:22.698Z,94.67
2023-02-08T05:02:24.232Z,94.08
2023-02-08T05:03:26.714Z,93.23
2023-02-08T05:04:28.389Z,92.76
2023-02-08T05:05:31.861Z,92.59
2023-02-08T05:06:33.847Z,91.94
2023-02-08T05:07:37.893Z,91.09
2023-02-08T05:08:39.429Z,90.72
2023-02-08T05:09:42.190Z,90.32
2023-02-08T05:10:45.409Z,90.48
2023-02-08T05:11:47.917Z,90.52
2023-02-08T05:12:49.473Z,90.31
2023-02-08T05:13:52.824Z,90.15
2023-02-08T05:14:54.480Z,89.70
2023-02-08T05:15:57.084Z,89.27
2023-02-08T05:16:58.765Z,89.15
2023-02-08T05:18:04.284Z,88.80
2023-02-08T05:19:06.828Z,88.57
2023-02-08T05:20:10.027Z,88.12
2023-02-08T05:21:12.960Z,88.22
2023-02-08T05:22:14.630Z,87.71
2023-02-08T05:23:18.628Z,87.88
2023-02-08T05:24:20.235Z,87.80
2023-02-08T05:25:23.137Z,87.66
2023-02-08T05:26:24.783Z,89.33
2023-02-08T05:27:27.521Z,90.42
2023-02-08T05:28:29.139Z,92.27
2023-02-08T05:29:33.445Z,95.15
2023-02-08T05:30:35.067Z,95.65
2023-02-08T05:31:37.966Z,97.64
2023-02-08T05:32:39.710Z,99.03
2023-02-08T05:33:42.465Z,99.49
2023-02-08T05:34:44.391Z,99.20
2023-02-08T05:35:47.373Z,99.84
2023-02-08T05:36:48.986Z,100.00
2023-02-08T05:37:51.543Z,100.00
2023-02-08T05:38:54.766Z,100.00
2023-02-08T05:39:57.243Z,100.00
2023-02-08T05:41:01.696Z,100.00
2023-02-08T05:42:04.810Z,100.00
2023-02-08T05:43:06.429Z,100.00
2023-02-08T05:44:08.997Z,98.33
2023-02-08T05:45:10.670Z,98.34
2023-02-08T05:46:13.216Z,98.26
2023-02-08T05:47:18.614Z,99.45
2023-02-08T05:48:20.495Z,100.00
2023-02-08T05:49:23.183Z,98.90
2023-02-08T05:50:24.884Z,99.69
2023-02-08T05:51:27.891Z,99.90
2023-02-08T05:52:29.509Z,100.00
2023-02-08T05:53:32.381Z,99.41
2023-02-08T05:54:35.660Z,99.29
2023-02-08T05:55:38.309Z,99.18
2023-02-08T05:56:39.829Z,98.49
2023-02-08T05:57:42.372Z,97.95
2023-02-08T05:58:43.983Z,96.90
2023-02-08T05:59:46.642Z,96.68
2023-02-08T06:00:48.399Z,97.34
2023-02-08T06:01:51.264Z,98.01
2023-02-08T06:02:53.114Z,98.88
2023-02-08T06:03:55.794Z,99.98
2023-02-08T06:04:58.310Z,100.00
2023-02-08T06:06:00.826Z,99.97
2023-02-08T06:07:03.428Z,99.45
2023-02-08T06:08:05.929Z,99.41
2023-02-08T06:09:08.429Z,98.78
2023-02-08T06:10:11.738Z,98.32
2023-02-08T06:11:14.543Z,97.29
2023-02-08T06:12:16.082Z,96.67
2023-02-08T06:13:18.594Z,95.61
2023-02-08T06:14:20.491Z,94.88
2023-02-08T06:15:23.224Z,94.94
2023-02-08T06:16:28.705Z,95.53
2023-02-08T06:17:30.264Z,98.32
2023-02-08T06:18:32.937Z,100.00
2023-02-08T06:19:34.506Z,100.00
2023-02-08T06:20:37.073Z,100.00
2023-02-08T06:21:39.627Z,100.00
2023-02-08T06:22:42.268Z,100.00
2023-02-08T06:23:44.901Z,100.00
2023-02-08T06:24:47.832Z,98.50
2023-02-08T06:25:52.655Z,97.78
2023-02-08T06:26:54.309Z,95.49
2023-02-08T06:27:57.575Z,95.29
2023-02-08T06:28:59.302Z,94.64
2023-02-08T06:30:01.800Z,94.17
2023-02-08T06:31:03.811Z,93.88
2023-02-08T06:32:06.962Z,93.38
2023-02-08T06:33:08.641Z,92.90
2023-02-08T06:34:11.264Z,92.64
2023-02-08T06:35:14.074Z,92.64
2023-02-08T06:36:15.749Z,92.26
2023-02-08T06:37:18.911Z,92.14
2023-02-08T06:38:20.754Z,91.31
2023-02-08T06:39:23.802Z,90.69
2023-02-08T06:40:25.586Z,91.31
2023-02-08T06:41:29.529Z,92.48
2023-02-08T06:42:32.059Z,95.65
2023-02-08T06:43:33.756Z,96.02
2023-02-08T06:44:36.526Z,96.83
2023-02-08T06:45:39.179Z,97.10
2023-02-08T06:46:41.909Z,97.90
2023-02-08T06:47:43.739Z,98.24
2023-02-08T06:48:46.364Z,98.27
2023-02-08T06:49:48.983Z,98.89
2023-02-08T06:50:52.296Z,98.64
2023-02-08T06:51:55.043Z,100.00
2023-02-08T06:52:57.842Z,100.00
2023-02-08T06:53:59.522Z,100.00
2023-02-08T06:55:02.090Z,100.00
2023-02-08T06:56:03.995Z,100.00
2023-02-08T06:57:08.406Z,100.00
2023-02-08T06:58:11.222Z,100.00
2023-02-08T06:59:13.817Z,100.00
2023-02-08T07:00:16.781Z,100.00
2023-02-08T07:01:20.442Z,100.00
2023-02-08T07:02:23.363Z,100.00
2023-02-08T07:03:24.894Z,100.00
2023-02-08T07:04:27.531Z,100.00
2023-02-08T07:05:30.116Z,100.00
2023-02-08T07:06:32.984Z,100.00
2023-02-08T07:07:34.622Z,100.00
2023-02-08T07:08:37.199Z,100.00
2023-02-08T07:09:39.954Z,100.00
2023-02-08T07:10:41.792Z,100.00
2023-02-08T07:11:47.446Z,100.00
2023-02-08T07:12:51.285Z,100.00
2023-02-08T07:13:54.497Z,100.00
2023-02-08T07:14:57.084Z,100.00
2023-02-08T07:15:58.713Z,100.00
2023-02-08T07:17:01.487Z,100.00
2023-02-08T07:18:04.375Z,100.00
2023-02-08T07:19:08.058Z,100.00
2023-02-08T07:20:14.320Z,100.00
2023-02-08T07:21:16.150Z,100.00
2023-02-08T07:22:18.844Z,100.00
2023-02-08T07:23:20.408Z,100.00
2023-02-08T07:24:23.473Z,100.00
2023-02-08T07:25:26.251Z,100.00
2023-02-08T07:26:28.915Z,100.00
2023-02-08T07:27:30.517Z,100.00
2023-02-08T07:28:34.634Z,100.00
2023-02-08T07:29:37.876Z,100.00
2023-02-08T07:30:40.962Z,100.00
2023-02-08T07:31:43.838Z,100.00
2023-02-08T07:32:45.526Z,100.00
2023-02-08T07:33:48.088Z,100.00
2023-02-08T07:34:50.803Z,100.00
2023-02-08T07:35:53.627Z,100.00
2023-02-08T07:36:56.335Z,100.00
2023-02-08T07:38:02.436Z,100.00
2023-02-08T07:39:05.210Z,100.00
2023-02-08T07:40:08.509Z,100.00
2023-02-08T07:41:13.434Z,100.00
2023-02-08T07:42:16.004Z,100.00
2023-02-08T07:43:18.519Z,100.00
2023-02-08T07:44:21.480Z,100.00
2023-02-08T07:45:24.204Z,100.00
2023-02-08T07:46:26.930Z,100.00
2023-02-08T07:47:31.970Z,100.00
2023-02-08T07:48:34.080Z,100.00
2023-02-08T07:49:36.908Z,99.18
2023-02-08T07:50:38.667Z,97.25
2023-02-08T07:51:41.396Z,97.08
2023-02-08T07:52:45.849Z,96.20
2023-02-08T07:53:48.473Z,96.87
2023-02-08T07:54:51.008Z,96.54
2023-02-08T07:55:53.529Z,96.09
2023-02-08T07:56:55.561Z,94.51
2023-02-08T07:57:58.664Z,93.96
2023-02-08T07:59:00.258Z,93.29
2023-02-08T08:00:05.808Z,93.62
2023-02-08T08:01:21.297Z,92.81
2023-02-08T08:02:24.882Z,93.13
2023-02-08T08:03:27.560Z,93.03
2023-02-08T08:04:30.110Z,93.37
2023-02-08T08:05:33.787Z,93.60
2023-02-08T08:06:36.448Z,93.09
2023-02-08T08:07:39.092Z,93.30
2023-02-08T08:08:42.384Z,92.91
2023-02-08T08:09:43.975Z,93.29
2023-02-08T08:10:46.535Z,92.45
2023-02-08T08:11:49.128Z,91.60
2023-02-08T08:12:51.656Z,90.73
2023-02-08T08:13:54.524Z,91.18
2023-02-08T08:14:57.114Z,90.32
2023-02-08T08:16:01.112Z,90.19
2023-02-08T08:17:03.583Z,89.89
2023-02-08T08:18:06.171Z,90.00
2023-02-08T08:19:08.697Z,89.22
2023-02-08T08:20:11.312Z,88.77
2023-02-08T08:21:15.330Z,89.38
2023-02-08T08:22:21.055Z,90.69
2023-02-08T08:23:23.885Z,92.97
2023-02-08T08:24:27.002Z,92.74
2023-02-08T08:25:28.733Z,93.17
2023-02-08T08:26:31.371Z,92.72
2023-02-08T08:27:33.052Z,91.78
2023-02-08T08:28:35.702Z,91.62
2023-02-08T08:29:38.234Z,91.34
2023-02-08T08:30:44.030Z,90.65
2023-02-08T08:31:48.270Z,89.62
2023-02-08T08:32:49.829Z,88.43
2023-02-08T08:33:52.607Z,88.87
2023-02-08T08:34:56.659Z,87.99
2023-02-08T08:35:59.219Z,87.44
2023-02-08T08:37:03.032Z,88.07
2023-02-08T08:38:05.611Z,87.96
2023-02-08T08:39:08.169Z,87.43
2023-02-08T08:40:11.613Z,87.28
2023-02-08T08:41:17.080Z,86.64
2023-02-08T08:42:21.032Z,85.86
2023-02-08T08:43:23.765Z,86.34
2023-02-08T08:44:28.320Z,86.22
2023-02-08T08:45:30.107Z,84.87
2023-02-08T08:46:32.729Z,84.70
2023-02-08T08:47:36.696Z,84.56
2023-02-08T08:48:39.700Z,85.27
2023-02-08T08:49:42.849Z,85.70
2023-02-08T08:50:44.528Z,86.04
2023-02-08T08:51:47.461Z,85.62
2023-02-08T08:52:50.174Z,84.97
2023-02-08T08:53:52.965Z,85.45
2023-02-08T08:54:54.572Z,85.50
2023-02-08T08:55:57.200Z,85.17
2023-02-08T08:57:04.226Z,84.62
2023-02-08T08:58:06.853Z,85.63
2023-02-08T08:59:11.753Z,87.91
2023-02-08T09:00:15.579Z,88.50
2023-02-08T09:01:18.415Z,88.57
2023-02-08T09:02:21.034Z,88.43
2023-02-08T09:03:25.010Z,87.29
2023-02-08T09:04:28.110Z,87.09
2023-02-08T09:05:30.962Z,86.75
2023-02-08T09:06:33.729Z,86.82
2023-02-08T09:07:35.603Z,86.89
2023-02-08T09:08:38.330Z,85.55
2023-02-08T09:09:41.825Z,86.62
2023-02-08T09:10:46.941Z,88.54
2023-02-08T09:11:50.784Z,90.13
2023-02-08T09:12:54.013Z,91.62
2023-02-08T09:13:56.367Z,90.87
2023-02-08T09:14:59.139Z,91.17
2023-02-08T09:16:06.156Z,90.73
2023-02-08T09:17:09.110Z,90.10
2023-02-08T09:18:11.710Z,88.76
2023-02-08T09:19:16.595Z,89.15
2023-02-08T09:20:19.524Z,89.14
2023-02-08T09:21:25.348Z,89.07
2023-02-08T09:22:29.242Z,89.57
2023-02-08T09:23:33.628Z,88.87
2023-02-08T09:24:36.777Z,90.10
2023-02-08T09:25:41.472Z,92.00
2023-02-08T09:26:46.900Z,91.44
2023-02-08T09:27:49.826Z,91.78
2023-02-08T09:28:52.509Z,92.67
2023-02-08T09:29:56.717Z,91.75
2023-02-08T09:31:11.912Z,91.60
2023-02-08T09:32:24.623Z,90.68
2023-02-08T09:33:27.579Z,89.32
2023-02-08T09:34:33.835Z,88.10
2023-02-08T09:35:35.702Z,86.12
2023-02-08T09:36:43.509Z,85.03
2023-02-08T09:37:46.272Z,85.96
2023-02-08T09:38:51.702Z,86.49
2023-02-08T09:39:54.446Z,86.89
2023-02-08T09:41:10.980Z,87.05
2023-02-08T09:42:23.815Z,87.05
2023-02-08T09:43:35.583Z,86.06
2023-02-08T09:44:48.346Z,83.41
2023-02-08T09:46:00.175Z,82.86
2023-02-08T09:47:11.158Z,82.65
2023-02-08T09:48:22.808Z,82.14
2023-02-08T09:49:29.681Z,82.55
2023-02-08T09:50:41.161Z,82.85
2023-02-08T09:51:48.655Z,84.96
2023-02-08T09:52:59.232Z,84.46
2023-02-08T09:54:07.212Z,83.88
2023-02-08T09:55:31.092Z,85.04
2023-02-08T09:56:40.439Z,83.81
2023-02-08T09:57:46.814Z,84.56
2023-02-08T09:58:52.853Z,83.20
2023-02-08T09:59:59.265Z,82.84
2023-02-08T10:01:05.933Z,82.54
2023-02-08T10:02:19.502Z,81.76
2023-02-08T10:03:34.834Z,80.59
2023-02-08T10:04:45.798Z,79.68
2023-02-08T10:05:51.129Z,81.46
2023-02-08T10:06:53.885Z,80.09
2023-02-08T10:07:56.582Z,80.46
2023-02-08T10:09:03.162Z,80.41
2023-02-08T10:10:08.142Z,79.01
2023-02-08T10:11:28.351Z,82.62
2023-02-08T10:12:44.107Z,84.33
2023-02-08T10:14:05.386Z,83.50
2023-02-08T10:15:23.102Z,84.47
2023-02-08T10:16:43.828Z,84.67
2023-02-08T10:18:02.466Z,84.00
2023-02-08T10:19:15.794Z,82.97
2023-02-08T10:20:34.443Z,82.68
2023-02-08T10:21:53.539Z,83.17
2023-02-08T10:23:05.142Z,81.58
2023-02-08T10:24:35.280Z,80.08
2023-02-08T10:26:07.895Z,78.83
2023-02-08T10:27:17.300Z,77.08
2023-02-08T10:28:50.856Z,75.32
2023-02-08T10:30:07.267Z,75.55
2023-02-08T10:31:21.159Z,76.42
2023-02-08T10:32:40.995Z,74.38
2023-02-08T10:33:51.548Z,72.86
2023-02-08T10:34:59.109Z,70.94
2023-02-08T10:36:01.939Z,69.96
2023-02-08T10:37:15.499Z,69.84
2023-02-08T10:38:25.404Z,68.41
2023-02-08T10:39:31.903Z,65.83
2023-02-08T10:40:39.489Z,62.32
2023-02-08T10:41:42.715Z,60.47
2023-02-08T10:42:53.113Z,59.00
2023-02-08T10:44:04.014Z,56.51
2023-02-08T10:45:23.967Z,57.47
2023-02-08T10:46:36.791Z,54.50
2023-02-08T10:47:45.875Z,54.88
2023-02-08T10:49:01.668Z,54.53
2023-02-08T10:50:07.700Z,53.62
2023-02-08T10:51:13.719Z,53.49
2023-02-08T10:52:18.332Z,52.35
2023-02-08T10:53:21.880Z,52.41
2023-02-08T10:54:24.712Z,51.67
2023-02-08T10:55:28.056Z,51.40
2023-02-08T10:56:41.022Z,49.97
2023-02-08T10:57:48.407Z,50.30
2023-02-08T10:58:51.284Z,47.77
2023-02-08T10:59:58.858Z,47.14
2023-02-08T11:01:01.597Z,48.92
2023-02-08T11:02:18.935Z,47.92
2023-02-08T11:03:24.349Z,47.84
2023-02-08T11:04:27.318Z,46.02
2023-02-08T11:05:35.389Z,46.34
2023-02-08T11:06:41.340Z,47.74
2023-02-08T11:07:46.307Z,46.74
2023-02-08T11:08:56.284Z,46.17
2023-02-08T11:10:22.480Z,47.19
2023-02-08T11:11:27.019Z,48.53
2023-02-08T11:12:32.031Z,49.32
2023-02-08T11:13:43.526Z,52.54
2023-02-08T11:14:54.074Z,53.35
2023-02-08T11:15:59.193Z,52.63
2023-02-08T11:17:05.375Z,53.85
2023-02-08T11:18:18.555Z,52.98
2023-02-08T11:19:30.513Z,50.86
2023-02-08T11:20:36.847Z,50.95
2023-02-08T11:21:42.442Z,49.46
2023-02-08T11:22:47.823Z,47.93
2023-02-08T11:23:53.705Z,46.70
2023-02-08T11:24:59.183Z,46.99
2023-02-08T11:26:18.899Z,49.12
2023-02-08T11:27:33.477Z,48.83
2023-02-08T11:28:36.478Z,47.56
2023-02-08T11:29:39.228Z,45.63
2023-02-08T11:30:43.337Z,43.96
2023-02-08T11:32:03.516Z,43.97
2023-02-08T11:33:24.247Z,42.95
2023-02-08T11:34:28.891Z,40.80
2023-02-08T11:35:33.885Z,45.25
2023-02-08T11:36:38.541Z,46.37
2023-02-08T11:37:49.452Z,48.04
2023-02-08T11:38:54.561Z,51.40
2023-02-08T11:39:59.064Z,53.57
2023-02-08T11:41:15.835Z,51.68
2023-02-08T11:42:22.214Z,47.64
2023-02-08T11:43:27.331Z,45.03
2023-02-08T11:44:33.015Z,46.97
2023-02-08T11:45:41.414Z,49.68
2023-02-08T11:46:49.261Z,49.04
2023-02-08T11:47:53.200Z,47.50
2023-02-08T11:48:57.352Z,49.43
2023-02-08T11:50:04.843Z,50.45
2023-02-08T11:51:08.510Z,51.17
2023-02-08T11:52:26.780Z,53.51
2023-02-08T11:53:37.923Z,57.64
2023-02-08T11:54:43.183Z,58.84
2023-02-08T11:55:46.305Z,58.84
2023-02-08T11:57:02.939Z,58.29
2023-02-08T11:58:18.945Z,56.75
2023-02-08T11:59:27.922Z,57.17
2023-02-08T12:00:39.314Z,60.22
2023-02-08T12:01:43.629Z,61.71
2023-02-08T12:02:46.992Z,60.39
2023-02-08T12:03:51.542Z,61.02
2023-02-08T12:04:54.282Z,59.74
2023-02-08T12:06:10.681Z,58.57
2023-02-08T12:07:25.710Z,57.23
2023-02-08T12:08:40.528Z,56.35
2023-02-08T12:10:10.097Z,55.62
2023-02-08T12:11:23.816Z,54.65
2023-02-08T12:12:37.192Z,55.60
2023-02-08T12:14:09.607Z,53.56
2023-02-08T12:15:24.008Z,51.36
2023-02-08T12:16:44.432Z,53.29
2023-02-08T12:18:06.094Z,51.14
2023-02-08T12:19:41.188Z,53.25
2023-02-08T12:20:47.141Z,55.07
2023-02-08T12:21:56.767Z,53.99
2023-02-08T12:23:15.357Z,53.68
2023-02-08T12:24:28.209Z,54.49
2023-02-08T12:25:43.727Z,53.95
2023-02-08T12:27:06.912Z,54.66
2023-02-08T12:28:21.564Z,56.43
2023-02-08T12:29:48.524Z,56.84
2023-02-08T12:31:00.694Z,56.85
2023-02-08T12:32:21.299Z,60.64
2023-02-08T12:33:36.909Z,60.51
2023-02-08T12:35:01.310Z,59.65
2023-02-08T12:36:13.276Z,56.96
2023-02-08T12:37:48.146Z,54.73
2023-02-08T12:39:35.890Z,52.27
2023-02-08T12:40:52.766Z,54.74
2023-02-08T12:42:09.827Z,52.52
2023-02-08T12:43:25.221Z,52.57
2023-02-08T12:44:34.642Z,52.34
2023-02-08T12:46:04.829Z,58.23
2023-02-08T12:47:24.328Z,57.72
2023-02-08T12:48:46.362Z,56.42
2023-02-08T12:50:02.017Z,57.01
2023-02-08T12:51:13.930Z,56.07
2023-02-08T12:52:28.326Z,55.56
2023-02-08T12:53:34.986Z,56.68
2023-02-08T12:54:42.573Z,57.64
2023-02-08T12:55:51.360Z,56.93
2023-02-08T12:57:01.993Z,57.82
2023-02-08T12:58:23.290Z,56.88
2023-02-08T12:59:29.782Z,56.62
2023-02-08T13:00:38.783Z,57.45
2023-02-08T13:01:45.714Z,54.23
2023-02-08T13:02:57.769Z,54.90
2023-02-08T13:04:07.431Z,56.05
2023-02-08T13:05:17.347Z,54.70
2023-02-08T13:06:25.798Z,53.59
2023-02-08T13:07:33.599Z,52.01
2023-02-08T13:08:44.391Z,51.20
2023-02-08T13:09:49.448Z,50.12
2023-02-08T13:11:10.729Z,51.06
2023-02-08T13:12:27.170Z,49.71
2023-02-08T13:13:34.013Z,50.00
2023-02-08T13:14:44.765Z,50.75
2023-02-08T13:15:50.796Z,52.92
2023-02-08T13:16:59.741Z,52.33
2023-02-08T13:18:12.320Z,50.52
2023-02-08T13:19:30.033Z,54.09
2023-02-08T13:20:42.451Z,53.09
2023-02-08T13:21:45.920Z,52.98
2023-02-08T13:22:50.090Z,54.60
2023-02-08T13:23:53.752Z,54.46
2023-02-08T13:25:07.121Z,55.96
2023-02-08T13:26:16.707Z,55.02
2023-02-08T13:27:22.219Z,55.93
2023-02-08T13:28:30.327Z,56.58
2023-02-08T13:29:33.852Z,57.19
2023-02-08T13:30:40.267Z,54.90
2023-02-08T13:31:46.379Z,53.82
2023-02-08T13:32:52.492Z,55.41
2023-02-08T13:34:02.150Z,55.24
2023-02-08T13:35:09.190Z,54.64
2023-02-08T13:36:22.524Z,54.45
2023-02-08T13:37:31.448Z,53.50
2023-02-08T13:38:36.524Z,50.75
2023-02-08T13:39:42.380Z,49.70
2023-02-08T13:40:46.463Z,50.33
2023-02-08T13:41:55.183Z,50.52
2023-02-08T13:43:02.462Z,51.69
2023-02-08T13:44:07.090Z,55.20
2023-02-08T13:45:11.013Z,53.88
2023-02-08T13:46:14.453Z,51.16
2023-02-08T13:47:28.732Z,49.92
2023-02-08T13:48:44.370Z,48.47
2023-02-08T13:49:59.942Z,48.24
2023-02-08T13:51:03.329Z,50.95
2023-02-08T13:52:06.252Z,51.59
2023-02-08T13:53:08.995Z,50.84
2023-02-08T13:54:14.429Z,51.04
2023-02-08T13:55:44.241Z,51.06
2023-02-08T13:56:49.478Z,48.96
2023-02-08T13:57:55.908Z,48.27
2023-02-08T13:59:01.521Z,52.74
2023-02-08T14:00:25.493Z,54.62
2023-02-08T14:01:30.470Z,56.42
2023-02-08T14:02:33.240Z,54.38
2023-02-08T14:03:35.491Z,54.50
2023-02-08T14:04:39.598Z,55.11
2023-02-08T14:05:49.096Z,51.93
2023-02-08T14:06:56.333Z,51.91
2023-02-08T14:08:00.631Z,53.02
2023-02-08T14:09:11.971Z,51.86
2023-02-08T14:10:37.462Z,52.27
2023-02-08T14:11:46.365Z,51.86
2023-02-08T14:12:59.483Z,54.91
2023-02-08T14:14:05.104Z,53.39